CheckWX is a tool to help pilots better visualize weather data.  It is not intended as a substitute for an official pre-flight weather briefing.

01:16:24 UTC

KALW TAF
Walla Walla Regional Airport
Walla Walla, Washington, USA
KALW 232320Z 2400/2424 30006KT P6SM SCT050 BKN100 FM240500 06005KT P6SM VCSH SCT020 OVC050 FM241000 04005KT 4SM -SN BKN020 OVC040

Feb-24@
00:00 UTC

Feb-24 @ 00:00 UTC

Feb-24@
05:00 UTC

Feb-24 @ 05:00 UTC

KALW 232320Z 2400/2424 30006KT P6SM SCT050 BKN100
Wind
  • 300° at 6 KTS
Cloud Levels
  • Scattered at 5,000' AGL
  • Broken at 10,000' AGL

Feb-24@
05:00 UTC

Feb-24 @ 05:00 UTC

Feb-24@
10:00 UTC

Feb-24 @ 10:00 UTC

FM240500 06005KT P6SM VCSH SCT020 OVC050

From

From Standard forecast or significant change

Wind
  • 060° at 5 KTS
Cloud Levels
  • Scattered at 2,000' AGL
  • Overcast at 5,000' AGL

Feb-24@
10:00 UTC

Feb-24 @ 10:00 UTC

Feb-25@
00:00 UTC

Feb-25 @ 00:00 UTC

FM241000 04005KT 4SM -SN BKN020 OVC040

From

From Standard forecast or significant change

Wind
  • 040° at 5 KTS
Conditions
Light Snow
Cloud Levels
  • Broken at 2,000' AGL
  • Overcast at 4,000' AGL